sensor_id;sensor_type;location;lat;lon;timestamp;P1;durP1;ratioP1;P2;durP2;ratioP2
20161;SDS011;51382;53.180;15.414;2022-09-25T00:04:50;83.90;;;18.00;;
20161;SDS011;51382;53.180;15.414;2022-09-25T00:20:01;83.40;;;25.00;;
20161;SDS011;51382;53.180;15.414;2022-09-25T00:35:12;75.00;;;15.50;;
20161;SDS011;51382;53.180;15.414;2022-09-25T00:50:41;58.50;;;13.60;;
20161;SDS011;51382;53.180;15.414;2022-09-25T01:05:55;52.70;;;12.30;;
20161;SDS011;51382;53.180;15.414;2022-09-25T01:21:21;55.40;;;12.80;;
20161;SDS011;51382;53.180;15.414;2022-09-25T01:36:36;37.50;;;11.00;;
20161;SDS011;51382;53.180;15.414;2022-09-25T01:51:52;39.50;;;11.70;;
20161;SDS011;51382;53.180;15.414;2022-09-25T02:07:05;40.50;;;11.40;;
20161;SDS011;51382;53.180;15.414;2022-09-25T02:22:19;41.50;;;12.30;;
20161;SDS011;51382;53.180;15.414;2022-09-25T02:37:30;37.30;;;11.30;;
20161;SDS011;51382;53.180;15.414;2022-09-25T02:52:47;53.20;;;12.90;;
20161;SDS011;51382;53.180;15.414;2022-09-25T03:08:00;55.90;;;14.40;;
20161;SDS011;51382;53.180;15.414;2022-09-25T03:23:28;48.10;;;12.00;;
20161;SDS011;51382;53.180;15.414;2022-09-25T03:38:41;45.20;;;12.80;;
20161;SDS011;51382;53.180;15.414;2022-09-25T03:53:55;54.30;;;13.20;;
20161;SDS011;51382;53.180;15.414;2022-09-25T04:09:06;45.40;;;12.40;;
20161;SDS011;51382;53.180;15.414;2022-09-25T04:24:17;41.20;;;11.60;;
20161;SDS011;51382;53.180;15.414;2022-09-25T04:39:45;45.20;;;12.90;;
20161;SDS011;51382;53.180;15.414;2022-09-25T04:54:56;51.10;;;13.70;;
20161;SDS011;51382;53.180;15.414;2022-09-25T05:10:04;74.60;;;14.60;;
20161;SDS011;51382;53.180;15.414;2022-09-25T05:25:15;89.60;;;16.70;;
20161;SDS011;51382;53.180;15.414;2022-09-25T05:40:26;46.70;;;12.30;;
20161;SDS011;51382;53.180;15.414;2022-09-25T05:55:38;38.40;;;14.20;;
20161;SDS011;51382;53.180;15.414;2022-09-25T06:10:53;41.50;;;11.50;;
20161;SDS011;51382;53.180;15.414;2022-09-25T06:26:02;61.20;;;19.20;;
20161;SDS011;51382;53.180;15.414;2022-09-25T06:41:13;52.10;;;15.10;;
20161;SDS011;51382;53.180;15.414;2022-09-25T06:56:26;44.20;;;11.70;;
20161;SDS011;51382;53.180;15.414;2022-09-25T07:11:37;57.70;;;13.20;;
20161;SDS011;51382;53.180;15.414;2022-09-25T07:26:47;58.10;;;14.20;;
20161;SDS011;51382;53.180;15.414;2022-09-25T07:41:58;66.00;;;12.10;;
20161;SDS011;51382;53.180;15.414;2022-09-25T07:57:09;45.80;;;9.20;;
20161;SDS011;51382;53.180;15.414;2022-09-25T08:12:16;68.10;;;11.90;;
20161;SDS011;51382;53.180;15.414;2022-09-25T08:27:27;51.30;;;9.20;;
20161;SDS011;51382;53.180;15.414;2022-09-25T08:42:39;72.00;;;24.90;;
20161;SDS011;51382;53.180;15.414;2022-09-25T08:57:51;60.70;;;10.90;;
20161;SDS011;51382;53.180;15.414;2022-09-25T09:13:14;46.20;;;8.70;;
20161;SDS011;51382;53.180;15.414;2022-09-25T09:28:53;70.50;;;13.90;;
20161;SDS011;51382;53.180;15.414;2022-09-25T09:44:19;64.70;;;18.90;;
20161;SDS011;51382;53.180;15.414;2022-09-25T09:59:41;57.20;;;11.30;;
20161;SDS011;51382;53.180;15.414;2022-09-25T10:14:53;67.80;;;24.90;;
20161;SDS011;51382;53.180;15.414;2022-09-25T10:30:17;154.60;;;78.80;;
20161;SDS011;51382;53.180;15.414;2022-09-25T10:45:33;473.10;;;426.90;;
20161;SDS011;51382;53.180;15.414;2022-09-25T11:00:53;758.60;;;689.90;;
20161;SDS011;51382;53.180;15.414;2022-09-25T11:16:07;872.50;;;794.80;;
20161;SDS011;51382;53.180;15.414;2022-09-25T11:31:22;1028.30;;;944.00;;
20161;SDS011;51382;53.180;15.414;2022-09-25T11:46:34;1067.40;;;983.00;;
20161;SDS011;51382;53.180;15.414;2022-09-25T12:01:51;1168.40;;;999.90;;
20161;SDS011;51382;53.180;15.414;2022-09-25T12:17:08;1094.90;;;995.80;;
20161;SDS011;51382;53.180;15.414;2022-09-25T12:32:27;538.10;;;480.90;;
20161;SDS011;51382;53.180;15.414;2022-09-25T12:47:44;685.60;;;622.50;;
20161;SDS011;51382;53.180;15.414;2022-09-25T13:03:02;357.40;;;190.10;;
20161;SDS011;51382;53.180;15.414;2022-09-25T13:18:20;407.70;;;291.20;;
20161;SDS011;51382;53.180;15.414;2022-09-25T13:33:34;354.50;;;233.10;;
20161;SDS011;51382;53.180;15.414;2022-09-25T13:48:46;295.40;;;145.90;;
20161;SDS011;51382;53.180;15.414;2022-09-25T14:03:58;915.30;;;840.80;;
20161;SDS011;51382;53.180;15.414;2022-09-25T14:19:13;1251.80;;;999.90;;
20161;SDS011;51382;53.180;15.414;2022-09-25T14:34:38;1194.60;;;999.90;;
20161;SDS011;51382;53.180;15.414;2022-09-25T14:49:53;1052.50;;;971.90;;
20161;SDS011;51382;53.180;15.414;2022-09-25T15:05:31;945.40;;;869.30;;
20161;SDS011;51382;53.180;15.414;2022-09-25T15:20:46;1293.50;;;999.90;;
20161;SDS011;51382;53.180;15.414;2022-09-25T15:36:00;1047.00;;;973.40;;
20161;SDS011;51382;53.180;15.414;2022-09-25T15:51:21;43.10;;;12.40;;
20161;SDS011;51382;53.180;15.414;2022-09-25T16:06:38;39.80;;;8.00;;
20161;SDS011;51382;53.180;15.414;2022-09-25T16:21:52;45.40;;;12.30;;
20161;SDS011;51382;53.180;15.414;2022-09-25T16:37:04;24.70;;;8.30;;
20161;SDS011;51382;53.180;15.414;2022-09-25T16:52:17;49.40;;;18.70;;
20161;SDS011;51382;53.180;15.414;2022-09-25T17:07:29;1014.90;;;302.50;;
20161;SDS011;51382;53.180;15.414;2022-09-25T17:22:41;37.30;;;11.10;;
20161;SDS011;51382;53.180;15.414;2022-09-25T17:37:52;50.90;;;17.30;;
20161;SDS011;51382;53.180;15.414;2022-09-25T17:53:11;56.80;;;17.00;;
20161;SDS011;51382;53.180;15.414;2022-09-25T18:08:25;134.80;;;45.70;;
20161;SDS011;51382;53.180;15.414;2022-09-25T18:23:37;45.30;;;14.60;;
20161;SDS011;51382;53.180;15.414;2022-09-25T18:38:54;51.10;;;13.40;;
20161;SDS011;51382;53.180;15.414;2022-09-25T18:54:05;79.80;;;23.40;;
20161;SDS011;51382;53.180;15.414;2022-09-25T19:09:22;165.10;;;20.30;;
20161;SDS011;51382;53.180;15.414;2022-09-25T19:24:38;60.90;;;11.00;;
20161;SDS011;51382;53.180;15.414;2022-09-25T19:39:50;40.60;;;9.00;;
20161;SDS011;51382;53.180;15.414;2022-09-25T19:55:18;56.90;;;13.60;;
20161;SDS011;51382;53.180;15.414;2022-09-25T20:10:34;46.80;;;10.60;;
20161;SDS011;51382;53.180;15.414;2022-09-25T20:25:40;60.80;;;12.80;;
20161;SDS011;51382;53.180;15.414;2022-09-25T20:40:50;58.50;;;11.80;;
20161;SDS011;51382;53.180;15.414;2022-09-25T20:56:05;129.70;;;42.30;;
20161;SDS011;51382;53.180;15.414;2022-09-25T21:11:16;55.10;;;13.80;;
20161;SDS011;51382;53.180;15.414;2022-09-25T21:26:28;90.30;;;26.50;;
20161;SDS011;51382;53.180;15.414;2022-09-25T21:41:39;78.40;;;24.00;;
20161;SDS011;51382;53.180;15.414;2022-09-25T21:56:50;34.90;;;9.10;;
20161;SDS011;51382;53.180;15.414;2022-09-25T22:12:02;62.80;;;11.50;;
20161;SDS011;51382;53.180;15.414;2022-09-25T22:27:08;57.70;;;16.80;;
20161;SDS011;51382;53.180;15.414;2022-09-25T22:42:14;50.40;;;11.90;;
20161;SDS011;51382;53.180;15.414;2022-09-25T22:57:24;68.50;;;34.20;;
20161;SDS011;51382;53.180;15.414;2022-09-25T23:12:35;36.00;;;15.90;;
20161;SDS011;51382;53.180;15.414;2022-09-25T23:27:46;42.30;;;10.30;;
20161;SDS011;51382;53.180;15.414;2022-09-25T23:42:57;43.80;;;11.70;;
20161;SDS011;51382;53.180;15.414;2022-09-25T23:58:10;92.50;;;32.60;;
